Time;durP1;ratioP1;P1;durP2;ratioP2;P2;SDS_P1;SDS_P2;PMS_P1;PMS_P2;Temp;Humidity;BMP_temperature;BMP_pressure;BME280_temperature;BME280_humidity;BME280_pressure;Samples;Min_cycle;Max_cycle;Signal;HPM_P1;HPM_P2
2023/10/14 00:00:47;;;;;;;12.57;2.63;;;13.10;99.90;;;;;;4999831;28;20057;-46
2023/10/14 00:03:27;;;;;;;11.75;2.10;;;13.10;99.90;;;;;;4992562;28;20045;-47
2023/10/14 00:05:53;;;;;;;13.27;2.35;;;13.00;99.90;;;;;;4967459;28;20341;-47
2023/10/14 00:08:19;;;;;;;10.82;2.13;;;13.00;99.90;;;;;;5001801;28;20049;-46
2023/10/14 00:10:44;;;;;;;11.10;2.40;;;13.00;99.90;;;;;;5001425;28;20048;-44
2023/10/14 00:13:12;;;;;;;9.65;2.00;;;13.00;99.90;;;;;;5000937;28;20092;-44
2023/10/14 00:15:39;;;;;;;10.27;2.65;;;12.90;99.90;;;;;;5001341;28;20041;-45
2023/10/14 00:18:07;;;;;;;10.70;2.83;;;12.90;99.90;;;;;;5001484;28;20511;-46
2023/10/14 00:20:36;;;;;;;15.40;2.83;;;12.90;99.90;;;;;;5000612;28;20121;-45
2023/10/14 00:23:04;;;;;;;9.23;2.40;;;12.80;99.90;;;;;;4983120;28;20045;-44
2023/10/14 00:25:33;;;;;;;9.65;2.58;;;12.80;99.90;;;;;;5001401;28;20405;-43
2023/10/14 00:28:05;;;;;;;10.93;2.80;;;12.70;99.90;;;;;;5001381;28;20174;-44
2023/10/14 00:30:31;;;;;;;11.75;2.47;;;12.80;99.90;;;;;;4966651;28;20042;-46
2023/10/14 00:32:57;;;;;;;12.23;2.70;;;12.70;99.90;;;;;;4983282;28;20052;-47
2023/10/14 00:35:26;;;;;;;9.77;2.60;;;12.70;99.90;;;;;;5001266;28;20060;-45
2023/10/14 00:37:52;;;;;;;10.93;2.28;;;12.70;99.90;;;;;;4974676;28;20042;-47
2023/10/14 00:40:22;;;;;;;12.98;2.42;;;12.70;99.90;;;;;;5000770;28;20049;-47
2023/10/14 00:42:50;;;;;;;10.90;3.35;;;12.60;99.90;;;;;;4982910;28;20513;-46
2023/10/14 00:45:20;;;;;;;13.75;3.30;;;12.50;99.90;;;;;;5001299;28;20452;-46
2023/10/14 00:47:47;;;;;;;12.45;2.80;;;12.40;99.90;;;;;;5001377;28;20045;-44
2023/10/14 00:50:33;;;;;;;11.63;3.20;;;12.30;99.90;;;;;;5000784;28;20054;-46
2023/10/14 00:53:04;;;;;;;16.98;3.72;;;12.30;99.90;;;;;;4982560;28;20057;-44
2023/10/14 00:55:53;;;;;;;16.83;2.97;;;12.10;99.90;;;;;;4993714;28;20270;-43
2023/10/14 00:58:28;;;;;;;17.95;3.58;;;12.00;99.90;;;;;;5001137;28;20046;-43
2023/10/14 01:00:57;;;;;;;15.88;3.10;;;11.90;99.90;;;;;;4982389;28;20137;-47
2023/10/14 01:03:36;;;;;;;17.48;2.97;;;11.80;99.90;;;;;;4982258;28;20431;-45
2023/10/14 01:08:49;;;;;;;11.43;3.05;;;11.70;99.90;;;;;;4982672;28;20412;-44
2023/10/14 01:11:18;;;;;;;9.48;2.95;;;11.60;99.90;;;;;;5000178;28;20046;-45
2023/10/14 01:13:46;;;;;;;7.85;2.40;;;11.50;99.90;;;;;;5000398;28;20044;-43
2023/10/14 01:16:12;;;;;;;16.77;3.17;;;11.40;99.90;;;;;;4982598;28;20334;-44
2023/10/14 01:18:41;;;;;;;13.63;2.80;;;11.40;99.90;;;;;;4982784;28;20045;-42
2023/10/14 01:21:08;;;;;;;13.90;3.22;;;11.30;99.90;;;;;;4979456;28;20049;-43
2023/10/14 01:23:37;;;;;;;17.70;2.60;;;11.20;99.90;;;;;;4982112;28;20097;-44
2023/10/14 01:26:09;;;;;;;11.68;2.65;;;11.10;99.90;;;;;;4982467;28;20077;-44
2023/10/14 01:28:42;;;;;;;17.45;3.20;;;11.10;99.90;;;;;;4982174;28;20073;-43
2023/10/14 01:33:56;;;;;;;10.63;2.20;;;11.00;99.90;;;;;;4991576;28;20146;-44
2023/10/14 01:36:32;;;;;;;15.05;2.80;;;10.90;99.90;;;;;;5000030;28;20045;-43
2023/10/14 01:39:04;;;;;;;17.52;4.03;;;10.80;99.90;;;;;;4975833;28;20049;-43
2023/10/14 01:41:30;;;;;;;11.00;2.85;;;10.80;99.90;;;;;;4981504;28;20450;-43
2023/10/14 01:43:59;;;;;;;13.80;2.65;;;10.80;99.90;;;;;;4982320;28;20453;-42
2023/10/14 01:46:27;;;;;;;15.18;2.80;;;10.70;99.90;;;;;;4999720;28;20077;-46
2023/10/14 01:49:02;;;;;;;15.38;2.70;;;10.70;99.90;;;;;;4982503;28;20224;-44
2023/10/14 01:51:33;;;;;;;13.00;2.53;;;10.70;99.90;;;;;;4999199;28;20516;-44
2023/10/14 01:53:59;;;;;;;9.57;2.72;;;10.60;99.90;;;;;;4965439;28;20041;-42
2023/10/14 01:56:27;;;;;;;16.77;3.15;;;10.70;99.90;;;;;;4981963;28;20042;-42
2023/10/14 01:58:57;;;;;;;12.02;2.40;;;10.60;99.90;;;;;;4999849;28;20042;-44
2023/10/14 02:01:23;;;;;;;13.90;3.10;;;10.60;99.90;;;;;;4999746;28;20056;-45
2023/10/14 02:03:51;;;;;;;13.30;2.95;;;10.60;99.90;;;;;;4999848;28;20041;-43
2023/10/14 02:06:26;;;;;;;12.05;2.60;;;10.50;99.90;;;;;;5000174;28;20457;-43
2023/10/14 02:08:54;;;;;;;20.55;4.63;;;10.50;99.90;;;;;;4998532;28;20120;-47
2023/10/14 02:11:21;;;;;;;10.93;2.20;;;10.50;99.90;;;;;;4981714;28;20046;-44
2023/10/14 02:13:51;;;;;;;13.15;3.60;;;10.40;99.90;;;;;;5000015;28;20341;-44
2023/10/14 02:16:24;;;;;;;13.63;2.80;;;10.50;99.90;;;;;;4999807;28;20450;-46
2023/10/14 02:18:49;;;;;;;11.75;2.60;;;10.50;99.90;;;;;;4998435;28;20042;-47
2023/10/14 02:21:16;;;;;;;15.77;2.65;;;10.50;99.90;;;;;;4999321;28;20046;-44
2023/10/14 02:23:45;;;;;;;13.63;2.33;;;10.50;99.90;;;;;;4999434;28;20029;-43
2023/10/14 02:26:22;;;;;;;13.43;2.80;;;10.50;99.90;;;;;;4984439;28;20050;-43
2023/10/14 02:28:48;;;;;;;19.67;3.33;;;10.50;99.90;;;;;;5001687;28;20057;-43
2023/10/14 02:31:18;;;;;;;10.27;2.38;;;10.50;99.90;;;;;;5010167;28;20045;-45
2023/10/14 02:33:48;;;;;;;11.73;2.75;;;10.40;99.90;;;;;;5002796;28;20045;-44
2023/10/14 02:36:17;;;;;;;14.55;2.40;;;10.40;99.90;;;;;;5003007;28;20046;-44
2023/10/14 02:38:52;;;;;;;13.40;2.45;;;10.40;99.90;;;;;;4985445;28;20495;-43
2023/10/14 02:41:17;;;;;;;10.55;3.00;;;10.40;99.90;;;;;;5002605;28;20046;-43
2023/10/14 02:43:48;;;;;;;11.70;2.35;;;10.40;99.90;;;;;;4969158;28;20119;-43
2023/10/14 02:46:20;;;;;;;15.48;2.53;;;10.40;99.90;;;;;;4985084;28;20053;-44
2023/10/14 02:48:55;;;;;;;15.23;2.58;;;10.50;99.90;;;;;;5003089;28;20092;-44
2023/10/14 02:51:42;;;;;;;11.20;2.58;;;10.60;99.90;;;;;;5002300;28;20049;-46
2023/10/14 02:54:26;;;;;;;10.40;2.50;;;10.60;99.90;;;;;;4984637;28;20400;-43
2023/10/14 02:56:59;;;;;;;15.10;3.58;;;10.60;99.90;;;;;;5002754;28;20250;-44
2023/10/14 02:59:38;;;;;;;16.55;2.50;;;10.70;99.90;;;;;;5002349;28;20046;-43
2023/10/14 03:04:55;;;;;;;19.55;3.40;;;10.70;99.90;;;;;;4984655;28;20054;-43
2023/10/14 03:07:28;;;;;;;11.23;2.38;;;10.70;99.90;;;;;;5000749;28;20448;-44
2023/10/14 03:12:40;;;;;;;17.38;3.20;;;10.70;99.90;;;;;;5002601;28;20436;-42
2023/10/14 03:15:19;;;;;;;12.82;2.85;;;10.60;99.90;;;;;;5002602;28;20049;-44
2023/10/14 03:18:06;;;;;;;13.30;3.90;;;10.60;99.90;;;;;;4990694;28;20045;-44
2023/10/14 03:20:34;;;;;;;13.30;3.00;;;10.50;99.90;;;;;;5002503;28;20388;-42
2023/10/14 03:23:12;;;;;;;15.18;2.33;;;10.50;99.90;;;;;;5002113;28;20444;-43
2023/10/14 03:25:41;;;;;;;15.82;2.67;;;10.40;99.90;;;;;;5002765;28;20416;-43
2023/10/14 03:30:46;;;;;;;13.63;2.70;;;10.40;99.90;;;;;;5002305;28;20045;-43
2023/10/14 03:33:19;;;;;;;14.23;2.40;;;10.40;99.90;;;;;;5001937;28;20054;-44
2023/10/14 03:35:56;;;;;;;19.27;2.90;;;10.50;99.90;;;;;;4984165;28;20045;-44
2023/10/14 03:38:25;;;;;;;15.43;2.78;;;10.50;99.90;;;;;;4992858;28;20629;-43
2023/10/14 03:41:04;;;;;;;11.75;3.20;;;10.60;99.90;;;;;;4983188;28;20045;-44
2023/10/14 03:43:34;;;;;;;11.07;2.33;;;10.70;99.90;;;;;;4971776;28;20049;-44
2023/10/14 03:46:11;;;;;;;12.52;2.33;;;10.80;99.90;;;;;;5001499;28;20121;-43
2023/10/14 03:48:45;;;;;;;9.25;2.38;;;10.80;99.90;;;;;;5002170;28;20158;-43
2023/10/14 03:51:12;;;;;;;10.93;2.33;;;10.80;99.90;;;;;;5001624;28;20046;-44
2023/10/14 03:53:38;;;;;;;12.27;2.45;;;10.80;99.90;;;;;;5001740;28;20077;-44
2023/10/14 03:56:04;;;;;;;10.35;2.53;;;10.80;99.90;;;;;;5001071;28;20141;-43
2023/10/14 03:58:36;;;;;;;17.02;2.70;;;10.80;99.90;;;;;;5001821;28;20042;-47
2023/10/14 04:01:02;;;;;;;17.88;3.20;;;10.70;99.90;;;;;;4983556;28;20089;-45
2023/10/14 04:03:40;;;;;;;13.95;2.88;;;10.70;99.90;;;;;;5001615;28;20569;-44
2023/10/14 04:06:09;;;;;;;11.05;2.60;;;10.60;99.90;;;;;;4983949;28;20646;-43
2023/10/14 04:08:41;;;;;;;14.00;3.30;;;10.60;99.90;;;;;;4984200;28;20183;-44
2023/10/14 04:11:13;;;;;;;12.40;3.28;;;10.60;99.90;;;;;;4974078;28;20050;-44
2023/10/14 04:13:41;;;;;;;14.23;2.63;;;10.50;99.90;;;;;;4984140;28;20523;-46
2023/10/14 04:16:11;;;;;;;14.77;2.50;;;10.50;99.90;;;;;;4984118;28;20463;-44
2023/10/14 04:18:37;;;;;;;11.65;2.45;;;10.40;99.90;;;;;;5002007;28;20046;-44
2023/10/14 04:21:25;;;;;;;15.15;3.50;;;10.40;99.90;;;;;;5000965;28;20465;-43
2023/10/14 04:26:36;;;;;;;17.35;3.60;;;10.40;99.90;;;;;;5000994;28;20046;-44
2023/10/14 04:29:04;;;;;;;15.90;2.92;;;10.30;99.90;;;;;;4983356;28;20050;-46
2023/10/14 04:31:39;;;;;;;16.40;2.67;;;10.30;99.90;;;;;;5000670;28;20041;-43
2023/10/14 04:34:07;;;;;;;15.20;3.42;;;10.30;99.90;;;;;;5001064;28;20425;-42
2023/10/14 04:36:38;;;;;;;15.52;2.75;;;10.30;99.90;;;;;;5001185;28;20046;-43
2023/10/14 04:39:13;;;;;;;13.93;3.28;;;10.30;99.90;;;;;;4975348;28;20052;-44
2023/10/14 04:41:47;;;;;;;15.18;3.17;;;10.40;99.90;;;;;;4982719;28;20050;-44
2023/10/14 04:44:13;;;;;;;16.92;3.22;;;10.40;99.90;;;;;;4999646;28;20060;-43
2023/10/14 04:47:01;;;;;;;16.20;4.10;;;10.40;99.90;;;;;;4983217;28;20493;-44
2023/10/14 04:49:36;;;;;;;15.35;3.03;;;10.40;99.90;;;;;;5000135;28;20092;-43
2023/10/14 04:52:05;;;;;;;15.48;2.88;;;10.40;99.90;;;;;;4982504;28;20539;-43
2023/10/14 04:54:34;;;;;;;12.20;2.78;;;10.40;99.90;;;;;;5000730;28;20520;-43
2023/10/14 04:57:19;;;;;;;22.63;3.70;;;10.40;99.90;;;;;;4966209;28;20061;-43
2023/10/14 04:59:45;;;;;;;12.80;2.58;;;10.40;99.90;;;;;;4988634;28;20365;-45
2023/10/14 05:02:15;;;;;;;21.10;3.25;;;10.40;99.90;;;;;;4982219;28;20045;-44
2023/10/14 05:04:41;;;;;;;19.50;2.90;;;10.40;99.90;;;;;;4983108;28;20055;-44
2023/10/14 05:07:11;;;;;;;14.80;3.13;;;10.40;99.90;;;;;;5000584;28;20540;-45
2023/10/14 05:09:40;;;;;;;15.82;3.45;;;10.30;99.90;;;;;;4982402;28;20053;-42
2023/10/14 05:12:10;;;;;;;18.45;3.05;;;10.30;99.90;;;;;;5000040;28;20042;-44
2023/10/14 05:14:38;;;;;;;17.90;3.83;;;10.30;99.90;;;;;;4971535;28;20057;-43
2023/10/14 05:19:42;;;;;;;20.77;4.10;;;10.20;99.90;;;;;;5000510;28;20439;-42
2023/10/14 05:22:18;;;;;;;15.98;2.90;;;10.20;99.90;;;;;;4981983;28;20046;-43
2023/10/14 05:24:48;;;;;;;18.83;3.33;;;10.10;99.90;;;;;;5000425;28;20328;-46
2023/10/14 05:27:21;;;;;;;16.75;3.10;;;10.10;99.90;;;;;;4982498;28;20551;-43
2023/10/14 05:29:51;;;;;;;17.42;3.65;;;10.10;99.90;;;;;;5000386;28;20300;-44
2023/10/14 05:32:30;;;;;;;15.88;3.40;;;10.10;99.90;;;;;;5000436;28;20128;-43
2023/10/14 05:34:59;;;;;;;13.07;2.90;;;10.00;99.90;;;;;;4982615;28;20049;-46
2023/10/14 05:37:25;;;;;;;14.43;3.33;;;10.00;99.90;;;;;;4995812;28;20042;-46
2023/10/14 05:39:54;;;;;;;15.98;2.55;;;9.90;99.90;;;;;;4997220;28;20788;-44
2023/10/14 05:42:24;;;;;;;15.48;2.75;;;9.90;99.90;;;;;;4999555;28;20042;-45
2023/10/14 05:45:01;;;;;;;19.23;3.65;;;9.90;99.90;;;;;;4998150;28;20123;-43
2023/10/14 05:47:27;;;;;;;12.70;3.00;;;9.80;99.90;;;;;;4999703;28;20402;-44
2023/10/14 05:49:53;;;;;;;21.33;3.83;;;9.80;99.90;;;;;;4981240;28;20524;-44
2023/10/14 05:52:24;;;;;;;15.32;3.42;;;9.80;99.90;;;;;;4999808;28;20049;-44
2023/10/14 05:54:50;;;;;;;14.98;2.83;;;9.80;99.90;;;;;;4977152;28;20125;-44
2023/10/14 05:57:17;;;;;;;12.98;3.35;;;9.80;99.90;;;;;;4982155;28;20042;-44
2023/10/14 05:59:43;;;;;;;12.30;2.80;;;9.80;99.90;;;;;;4999218;28;20084;-47
2023/10/14 06:02:12;;;;;;;14.32;3.78;;;9.80;99.90;;;;;;5004046;28;20038;-44
2023/10/14 06:04:42;;;;;;;15.45;2.50;;;9.80;99.90;;;;;;4986436;28;20081;-45
2023/10/14 06:07:12;;;;;;;18.52;2.97;;;9.80;99.90;;;;;;5004049;28;20046;-46
2023/10/14 06:09:38;;;;;;;12.60;3.22;;;9.80;99.90;;;;;;4986327;28;20544;-44
2023/10/14 06:12:12;;;;;;;17.40;3.13;;;9.80;99.90;;;;;;4985962;28;20420;-42
2023/10/14 06:14:39;;;;;;;18.40;3.50;;;9.80;99.90;;;;;;5004116;28;20509;-43
2023/10/14 06:17:05;;;;;;;15.13;3.17;;;9.80;99.90;;;;;;4970288;28;20572;-44
2023/10/14 06:19:31;;;;;;;14.35;2.78;;;9.80;99.90;;;;;;5003732;28;20042;-43
2023/10/14 06:21:56;;;;;;;22.80;4.00;;;9.80;99.90;;;;;;4985908;28;20576;-45
2023/10/14 06:24:24;;;;;;;13.30;2.75;;;9.90;99.90;;;;;;5003700;28;20499;-45
2023/10/14 06:26:58;;;;;;;15.70;3.10;;;9.90;99.90;;;;;;5003540;28;20082;-43
2023/10/14 06:29:25;;;;;;;11.40;2.78;;;9.90;99.90;;;;;;4984694;28;20085;-42
2023/10/14 06:31:51;;;;;;;18.33;3.20;;;9.90;99.90;;;;;;5003564;28;20460;-43
2023/10/14 06:34:17;;;;;;;14.10;2.88;;;10.00;99.90;;;;;;4969277;28;20440;-44
2023/10/14 06:36:47;;;;;;;17.35;2.83;;;10.10;99.90;;;;;;5001738;28;20076;-42
2023/10/14 06:39:14;;;;;;;14.30;3.92;;;10.20;99.90;;;;;;4998762;28;20397;-44
2023/10/14 06:41:43;;;;;;;21.30;3.17;;;10.30;99.90;;;;;;5002498;28;20189;-42
2023/10/14 06:44:14;;;;;;;13.48;3.03;;;10.40;99.90;;;;;;5002784;28;20081;-43
2023/10/14 06:46:46;;;;;;;26.80;3.97;;;10.40;99.90;;;;;;4984793;28;20269;-43
2023/10/14 06:49:13;;;;;;;18.60;2.70;;;10.50;99.90;;;;;;5002123;28;20038;-44
2023/10/14 06:51:43;;;;;;;15.43;2.97;;;10.50;99.90;;;;;;5002566;28;20046;-44
2023/10/14 06:54:09;;;;;;;16.30;2.90;;;10.60;99.90;;;;;;5002709;28;20046;-43
2023/10/14 06:56:40;;;;;;;18.30;3.17;;;10.70;99.90;;;;;;5002859;28;20548;-44
2023/10/14 06:59:06;;;;;;;17.80;2.95;;;10.70;99.90;;;;;;5002146;28;20335;-43
2023/10/14 07:01:33;;;;;;;15.90;3.72;;;10.70;99.90;;;;;;4984209;28;20143;-44
2023/10/14 07:03:59;;;;;;;17.15;4.20;;;10.70;99.90;;;;;;5001769;28;20409;-44
2023/10/14 07:06:26;;;;;;;12.65;3.30;;;10.80;99.90;;;;;;4985128;28;20054;-43
2023/10/14 07:08:52;;;;;;;14.80;2.90;;;10.90;99.90;;;;;;5001756;28;20060;-44
2023/10/14 07:11:18;;;;;;;12.30;2.97;;;10.90;99.90;;;;;;5002202;28;20520;-44
2023/10/14 07:13:46;;;;;;;12.25;2.67;;;11.00;99.90;;;;;;5002421;28;20034;-45
2023/10/14 07:16:11;;;;;;;11.20;2.38;;;11.00;99.90;;;;;;4984462;28;20116;-42
2023/10/14 07:18:37;;;;;;;12.75;3.28;;;11.10;99.90;;;;;;5002359;28;20407;-44
2023/10/14 07:21:03;;;;;;;17.00;2.80;;;11.10;99.90;;;;;;5001899;28;20519;-42
2023/10/14 07:23:34;;;;;;;11.23;2.42;;;11.20;99.90;;;;;;4969593;28;20211;-46
2023/10/14 07:26:07;;;;;;;14.27;2.88;;;11.30;99.90;;;;;;5002346;28;20045;-43
2023/10/14 07:28:35;;;;;;;11.38;2.85;;;11.50;99.90;;;;;;4983167;28;20042;-44
2023/10/14 07:31:00;;;;;;;13.45;3.47;;;11.60;99.90;;;;;;4983585;28;20058;-42
2023/10/14 07:33:26;;;;;;;14.68;3.67;;;11.80;99.90;;;;;;5001694;28;20045;-42
2023/10/14 07:35:51;;;;;;;15.27;3.33;;;11.90;99.90;;;;;;4984165;28;20555;-42
2023/10/14 07:38:17;;;;;;;15.82;2.95;;;12.00;99.90;;;;;;4975828;28;20041;-43
2023/10/14 07:40:43;;;;;;;15.90;3.13;;;12.20;99.90;;;;;;4967564;28;20129;-43
2023/10/14 07:43:11;;;;;;;19.88;3.65;;;12.40;99.90;;;;;;4984161;28;20397;-44
2023/10/14 07:45:46;;;;;;;11.98;2.47;;;12.40;99.90;;;;;;5002325;28;20049;-43
2023/10/14 07:48:17;;;;;;;12.52;2.50;;;12.60;99.90;;;;;;5002051;28;20041;-43
2023/10/14 07:50:44;;;;;;;14.48;3.20;;;12.70;99.90;;;;;;4983603;28;20487;-43
2023/10/14 07:53:14;;;;;;;13.77;3.00;;;12.80;99.90;;;;;;4999906;28;20540;-44
2023/10/14 07:55:47;;;;;;;12.38;2.88;;;12.90;99.90;;;;;;5001464;28;20120;-44
2023/10/14 07:58:14;;;;;;;12.77;2.92;;;13.00;99.90;;;;;;5001882;28;20334;-45
2023/10/14 08:00:48;;;;;;;14.70;3.20;;;13.10;99.90;;;;;;5002038;28;20124;-44
2023/10/14 08:03:19;;;;;;;13.93;2.40;;;13.10;99.90;;;;;;4983673;28;20457;-48
2023/10/14 08:05:48;;;;;;;12.25;2.97;;;13.20;99.90;;;;;;4967412;28;20046;-46
2023/10/14 08:08:14;;;;;;;14.02;3.22;;;13.20;99.90;;;;;;4983424;28;20050;-45
2023/10/14 08:10:42;;;;;;;17.25;3.65;;;13.10;99.90;;;;;;4982771;28;20095;-44
2023/10/14 08:13:09;;;;;;;20.08;3.92;;;13.10;99.90;;;;;;4983432;28;20065;-45
2023/10/14 08:15:38;;;;;;;15.40;3.33;;;13.10;99.90;;;;;;5001535;28;20053;-47
2023/10/14 08:18:07;;;;;;;11.60;3.58;;;13.10;99.90;;;;;;4983659;28;20107;-46
2023/10/14 08:20:34;;;;;;;15.52;3.45;;;13.20;99.90;;;;;;5000895;28;20046;-43
2023/10/14 08:23:01;;;;;;;13.70;3.47;;;13.30;99.90;;;;;;4982985;28;20673;-45
2023/10/14 08:25:28;;;;;;;18.42;4.38;;;13.40;99.90;;;;;;5001203;28;20124;-46
2023/10/14 08:27:57;;;;;;;10.23;2.60;;;13.50;99.90;;;;;;5000998;28;20045;-45
2023/10/14 08:30:32;;;;;;;11.95;2.80;;;13.40;99.90;;;;;;4999546;28;20038;-45
2023/10/14 08:32:58;;;;;;;14.18;2.80;;;13.40;99.90;;;;;;5001255;28;20056;-43
2023/10/14 08:35:27;;;;;;;12.43;2.38;;;13.30;99.90;;;;;;5001270;28;20388;-45
2023/10/14 08:37:54;;;;;;;14.68;3.53;;;13.30;99.90;;;;;;4992789;28;20593;-43
2023/10/14 08:40:26;;;;;;;12.95;2.35;;;13.30;99.90;;;;;;5000548;28;20045;-45
2023/10/14 08:42:54;;;;;;;8.00;2.53;;;13.30;99.90;;;;;;4982832;28;20107;-46
2023/10/14 08:45:22;;;;;;;10.00;2.60;;;13.30;99.90;;;;;;5000898;28;20130;-44
2023/10/14 08:47:52;;;;;;;10.52;1.70;;;13.20;99.90;;;;;;5000490;28;20045;-43
2023/10/14 08:50:29;;;;;;;6.40;1.83;;;13.20;99.90;;;;;;4982882;28;20053;-43
2023/10/14 08:52:56;;;;;;;8.75;2.40;;;13.20;99.90;;;;;;4998948;28;20045;-44
2023/10/14 08:55:22;;;;;;;6.32;1.80;;;13.10;99.90;;;;;;5001065;28;20054;-43
2023/10/14 08:57:49;;;;;;;6.20;1.83;;;13.20;99.90;;;;;;5001464;28;20042;-44
2023/10/14 09:00:23;;;;;;;9.00;1.98;;;13.20;99.90;;;;;;5000580;28;20124;-45
2023/10/14 09:02:53;;;;;;;8.27;2.08;;;13.30;99.90;;;;;;5000654;28;20475;-43
2023/10/14 09:05:19;;;;;;;9.93;2.88;;;13.30;99.90;;;;;;5000408;28;20050;-45
2023/10/14 09:07:49;;;;;;;15.23;2.67;;;13.30;99.90;;;;;;4983366;28;20113;-42
2023/10/14 09:10:18;;;;;;;14.25;2.53;;;13.30;99.90;;;;;;5000156;28;20045;-44
2023/10/14 09:13:04;;;;;;;14.52;2.97;;;13.40;99.90;;;;;;4970973;28;20512;-44
2023/10/14 09:15:43;;;;;;;14.23;2.83;;;13.50;99.90;;;;;;4999990;28;20049;-46
2023/10/14 09:18:17;;;;;;;10.52;2.25;;;13.60;99.90;;;;;;5000258;28;20041;-44
2023/10/14 09:20:44;;;;;;;9.38;2.42;;;13.70;99.90;;;;;;4979577;28;20080;-43
2023/10/14 09:23:15;;;;;;;8.65;2.10;;;13.90;99.90;;;;;;5000020;28;20046;-44
2023/10/14 09:25:49;;;;;;;10.73;2.10;;;14.00;99.90;;;;;;4987244;28;20049;-45
2023/10/14 09:28:20;;;;;;;7.30;2.85;;;14.10;99.90;;;;;;4981640;28;20041;-47
2023/10/14 09:30:51;;;;;;;11.68;2.58;;;14.00;99.90;;;;;;4981794;28;20052;-43
2023/10/14 09:33:20;;;;;;;11.85;2.58;;;14.00;99.90;;;;;;5000302;28;20111;-43
2023/10/14 09:35:48;;;;;;;12.23;2.58;;;14.00;99.90;;;;;;4981909;28;20475;-43
2023/10/14 09:38:18;;;;;;;11.38;2.65;;;14.10;99.90;;;;;;4991806;28;20638;-45
2023/10/14 09:40:50;;;;;;;13.52;2.95;;;14.10;99.90;;;;;;4981709;28;20046;-45
2023/10/14 09:43:17;;;;;;;10.97;2.70;;;14.20;99.90;;;;;;4999918;28;20045;-44
2023/10/14 09:45:46;;;;;;;11.90;2.25;;;14.30;99.90;;;;;;4981823;28;20050;-43
2023/10/14 09:48:11;;;;;;;15.35;3.30;;;14.50;99.90;;;;;;4999554;28;20053;-46
2023/10/14 09:50:38;;;;;;;14.55;2.65;;;14.70;99.90;;;;;;4981957;28;20362;-45
2023/10/14 09:53:05;;;;;;;10.88;2.83;;;14.70;99.90;;;;;;4998334;28;20113;-43
2023/10/14 09:55:32;;;;;;;12.88;2.63;;;14.60;99.70;;;;;;4991310;28;20056;-44
2023/10/14 09:57:58;;;;;;;13.88;2.70;;;14.40;99.90;;;;;;4999532;28;20610;-45
2023/10/14 10:00:25;;;;;;;8.32;2.10;;;14.20;99.90;;;;;;4999403;28;20050;-46
2023/10/14 10:02:52;;;;;;;11.48;3.03;;;14.10;99.90;;;;;;4999855;28;20077;-45
2023/10/14 10:05:39;;;;;;;13.20;3.13;;;14.20;99.90;;;;;;4981529;28;20049;-45
2023/10/14 10:08:35;;;;;;;9.40;2.60;;;14.60;99.90;;;;;;4972232;28;20660;-43
2023/10/14 10:11:02;;;;;;;9.40;1.83;;;14.30;99.90;;;;;;4997828;28;20080;-45
2023/10/14 10:13:28;;;;;;;7.30;1.90;;;13.70;99.90;;;;;;4982060;28;20053;-43
2023/10/14 10:16:02;;;;;;;11.65;3.10;;;13.20;99.90;;;;;;4981692;28;20049;-43
2023/10/14 10:18:50;;;;;;;12.50;2.58;;;12.90;99.90;;;;;;4999352;28;20103;-46
2023/10/14 10:21:18;;;;;;;8.27;1.70;;;12.70;99.90;;;;;;4999881;28;20046;-45
2023/10/14 10:23:44;;;;;;;8.25;2.67;;;12.60;99.90;;;;;;4999773;28;20049;-43
2023/10/14 10:26:12;;;;;;;9.90;2.42;;;12.60;99.90;;;;;;4949462;28;20072;-46
2023/10/14 10:28:39;;;;;;;8.98;2.58;;;12.60;99.90;;;;;;4999324;28;20468;-44
2023/10/14 10:31:09;;;;;;;7.97;1.85;;;12.70;99.90;;;;;;4965186;28;20049;-45
2023/10/14 10:33:45;;;;;;;9.43;2.83;;;12.70;99.90;;;;;;4981507;28;20049;-47
2023/10/14 10:36:12;;;;;;;15.75;2.30;;;12.80;99.90;;;;;;4999062;28;20148;-43
2023/10/14 10:38:38;;;;;;;12.93;2.83;;;12.90;99.90;;;;;;4990944;28;20424;-42
2023/10/14 10:41:26;;;;;;;12.93;2.05;;;13.00;99.90;;;;;;4981586;28;20501;-45
2023/10/14 10:44:01;;;;;;;12.57;2.53;;;13.20;99.90;;;;;;5000000;28;20042;-46
2023/10/14 10:46:38;;;;;;;8.73;2.45;;;13.50;99.90;;;;;;4983157;28;20973;-47
2023/10/14 10:49:06;;;;;;;9.70;2.85;;;13.80;99.90;;;;;;4998280;28;20050;-45
2023/10/14 10:51:42;;;;;;;17.38;3.05;;;13.90;99.90;;;;;;4972111;28;20391;-44
2023/10/14 10:54:10;;;;;;;12.52;2.35;;;13.50;99.90;;;;;;5003007;28;20048;-45
2023/10/14 10:56:36;;;;;;;10.55;1.60;;;13.30;99.90;;;;;;4985024;28;20413;-45
2023/10/14 10:59:04;;;;;;;8.38;2.00;;;13.10;99.90;;;;;;4984816;28;20049;-43
2023/10/14 11:01:33;;;;;;;7.40;2.08;;;12.90;99.90;;;;;;4984960;28;20412;-45
2023/10/14 11:04:01;;;;;;;14.85;2.70;;;12.90;99.90;;;;;;5002929;28;20041;-45
2023/10/14 11:06:29;;;;;;;8.68;2.10;;;12.80;99.90;;;;;;5002757;28;20095;-47
2023/10/14 11:08:57;;;;;;;11.48;2.70;;;12.90;99.90;;;;;;4984475;28;20054;-46
2023/10/14 11:11:31;;;;;;;14.07;2.83;;;13.00;99.90;;;;;;5002007;28;20448;-42
2023/10/14 11:14:00;;;;;;;12.80;3.67;;;13.30;99.90;;;;;;5002003;28;20092;-43
2023/10/14 11:16:28;;;;;;;13.50;3.30;;;13.50;99.90;;;;;;5002113;28;20054;-46
2023/10/14 11:18:54;;;;;;;12.38;2.97;;;13.60;99.90;;;;;;5001747;28;20061;-43
2023/10/14 11:21:20;;;;;;;12.40;2.40;;;13.60;99.90;;;;;;5001887;28;20065;-47
2023/10/14 11:23:47;;;;;;;11.75;3.03;;;13.40;99.90;;;;;;5001686;28;20177;-47
2023/10/14 11:26:16;;;;;;;11.70;3.17;;;13.30;99.90;;;;;;5005748;28;20042;-45
2023/10/14 11:28:45;;;;;;;9.50;2.35;;;13.20;99.90;;;;;;4983595;28;20108;-46
2023/10/14 11:31:14;;;;;;;13.13;2.28;;;13.00;99.90;;;;;;5001244;28;20042;-45
2023/10/14 11:33:44;;;;;;;9.60;1.80;;;12.90;99.90;;;;;;4983807;28;20681;-45
2023/10/14 11:36:17;;;;;;;8.20;2.53;;;12.70;99.90;;;;;;4983919;28;20382;-45
2023/10/14 11:38:43;;;;;;;;;;;12.60;99.90;;;;;;5000396;28;20100;-43
2023/10/14 11:41:12;;;;;;;11.15;3.25;;;12.60;99.90;;;;;;4984026;28;19974;-43
2023/10/14 11:43:42;;;;;;;12.55;2.88;;;12.40;99.90;;;;;;5002576;28;20092;-44
2023/10/14 11:46:08;;;;;;;15.82;2.92;;;12.20;99.90;;;;;;5002143;28;20054;-43
2023/10/14 11:48:34;;;;;;;14.38;3.30;;;12.00;99.90;;;;;;5001608;28;20053;-43
2023/10/14 11:51:04;;;;;;;18.77;3.25;;;11.70;99.90;;;;;;5001147;28;20319;-43
2023/10/14 11:53:32;;;;;;;11.48;2.78;;;11.60;99.90;;;;;;4984798;28;20459;-44
2023/10/14 11:56:00;;;;;;;16.70;2.80;;;11.50;99.90;;;;;;4983756;28;20058;-44
2023/10/14 11:58:40;;;;;;;19.08;4.05;;;11.50;99.90;;;;;;4982059;28;20703;-45
2023/10/14 12:01:06;;;;;;;16.08;3.25;;;11.60;99.90;;;;;;5001351;28;20555;-44
2023/10/14 12:03:32;;;;;;;14.93;3.33;;;11.70;99.90;;;;;;5001673;28;20042;-46
2023/10/14 12:05:59;;;;;;;14.20;4.13;;;11.80;99.90;;;;;;5001772;28;20057;-44
2023/10/14 12:08:38;;;;;;;15.73;3.13;;;11.90;99.90;;;;;;4983967;28;20386;-46
2023/10/14 12:11:05;;;;;;;13.45;3.08;;;11.90;99.90;;;;;;4983556;28;20057;-45
2023/10/14 12:13:31;;;;;;;14.70;3.58;;;11.90;99.90;;;;;;4984258;28;20468;-45
2023/10/14 12:15:57;;;;;;;16.95;3.45;;;11.90;99.90;;;;;;4983627;28;20144;-43
2023/10/14 12:18:23;;;;;;;13.18;3.00;;;12.00;99.90;;;;;;4983194;28;20050;-46
2023/10/14 12:20:49;;;;;;;14.70;3.33;;;12.20;99.90;;;;;;5000843;28;20042;-43
2023/10/14 12:23:19;;;;;;;10.80;2.80;;;12.40;99.90;;;;;;4966879;28;20513;-42
2023/10/14 12:25:51;;;;;;;17.05;4.00;;;12.60;99.90;;;;;;5001262;28;20104;-44
2023/10/14 12:28:25;;;;;;;16.40;4.15;;;12.70;99.90;;;;;;5000526;28;20408;-45
2023/10/14 12:31:03;;;;;;;11.45;2.75;;;12.80;99.90;;;;;;5001019;28;20046;-46
2023/10/14 12:33:32;;;;;;;13.98;2.75;;;12.90;99.90;;;;;;4967446;28;20042;-42
2023/10/14 12:36:06;;;;;;;13.80;3.42;;;13.00;99.90;;;;;;5000968;28;20053;-45
2023/10/14 12:38:32;;;;;;;16.65;3.00;;;13.00;99.90;;;;;;4992541;28;20512;-44
2023/10/14 12:41:02;;;;;;;12.10;3.55;;;13.00;99.90;;;;;;5000684;28;20125;-47
2023/10/14 12:43:32;;;;;;;13.98;3.88;;;13.00;99.90;;;;;;4982982;28;20045;-44
2023/10/14 12:46:19;;;;;;;10.40;2.83;;;12.90;99.90;;;;;;4982669;28;20060;-46
2023/10/14 12:48:46;;;;;;;13.05;3.08;;;12.80;99.90;;;;;;5000598;28;20365;-46
2023/10/14 12:51:25;;;;;;;13.43;3.25;;;12.70;99.90;;;;;;5000302;28;20057;-46
2023/10/14 12:53:52;;;;;;;13.68;2.80;;;12.70;99.90;;;;;;4982379;28;20560;-45
2023/10/14 12:56:22;;;;;;;14.00;3.38;;;12.70;99.90;;;;;;5000347;28;20759;-43
2023/10/14 12:58:49;;;;;;;12.57;3.08;;;12.70;99.90;;;;;;4966275;28;20360;-45
2023/10/14 13:01:17;;;;;;;9.60;3.13;;;12.80;99.90;;;;;;4999687;28;20048;-46
2023/10/14 13:03:51;;;;;;;16.33;3.50;;;12.80;99.90;;;;;;5000591;28;20824;-45
2023/10/14 13:06:22;;;;;;;15.43;3.55;;;12.80;99.90;;;;;;4982649;28;20060;-44
2023/10/14 13:08:51;;;;;;;12.73;2.50;;;12.80;99.90;;;;;;4999626;28;20469;-45
2023/10/14 13:11:17;;;;;;;11.80;3.65;;;12.90;99.90;;;;;;4982067;28;20607;-46